sensor_id;sensor_type;location;lat;lon;timestamp;temperature;humidity
18412;DHT22;27097;51.738;19.472;2023-05-16T00:00:06;21.60;75.30
18412;DHT22;27097;51.738;19.472;2023-05-16T00:02:33;21.60;74.40
18412;DHT22;27097;51.738;19.472;2023-05-16T00:05:02;21.60;75.00
18412;DHT22;27097;51.738;19.472;2023-05-16T00:07:42;21.60;74.40
18412;DHT22;27097;51.738;19.472;2023-05-16T00:10:09;21.60;74.60
18412;DHT22;27097;51.738;19.472;2023-05-16T00:12:36;21.60;75.10
18412;DHT22;27097;51.738;19.472;2023-05-16T00:15:11;21.60;74.40
18412;DHT22;27097;51.738;19.472;2023-05-16T00:17:38;21.60;75.40
18412;DHT22;27097;51.738;19.472;2023-05-16T00:20:10;21.60;74.40
18412;DHT22;27097;51.738;19.472;2023-05-16T00:22:39;21.60;74.50
18412;DHT22;27097;51.738;19.472;2023-05-16T00:27:44;21.60;76.00
18412;DHT22;27097;51.738;19.472;2023-05-16T00:30:11;21.60;74.70
18412;DHT22;27097;51.738;19.472;2023-05-16T00:32:38;21.60;74.50
18412;DHT22;27097;51.738;19.472;2023-05-16T00:35:15;21.60;74.80
18412;DHT22;27097;51.738;19.472;2023-05-16T00:37:42;21.60;75.50
18412;DHT22;27097;51.738;19.472;2023-05-16T00:43:03;21.60;74.50
18412;DHT22;27097;51.738;19.472;2023-05-16T00:52:36;21.60;76.50
18412;DHT22;27097;51.738;19.472;2023-05-16T00:58:01;21.60;74.70
18412;DHT22;27097;51.738;19.472;2023-05-16T01:30:38;21.50;75.60
18412;DHT22;27097;51.738;19.472;2023-05-16T01:36:29;21.50;74.50
18412;DHT22;27097;51.738;19.472;2023-05-16T01:39:13;21.60;75.30
18412;DHT22;27097;51.738;19.472;2023-05-16T01:45:09;21.50;74.70
18412;DHT22;27097;51.738;19.472;2023-05-16T01:47:51;21.60;74.40
18412;DHT22;27097;51.738;19.472;2023-05-16T02:31:50;21.50;73.70
18412;DHT22;27097;51.738;19.472;2023-05-16T02:34:16;21.40;74.30
18412;DHT22;27097;51.738;19.472;2023-05-16T02:36:43;21.50;74.00
18412;DHT22;27097;51.738;19.472;2023-05-16T02:39:10;21.50;74.10
18412;DHT22;27097;51.738;19.472;2023-05-16T02:41:37;21.40;73.60
18412;DHT22;27097;51.738;19.472;2023-05-16T02:44:04;21.40;74.70
18412;DHT22;27097;51.738;19.472;2023-05-16T02:46:33;21.50;73.90
18412;DHT22;27097;51.738;19.472;2023-05-16T02:49:08;21.40;73.70
18412;DHT22;27097;51.738;19.472;2023-05-16T02:51:35;21.40;74.30
18412;DHT22;27097;51.738;19.472;2023-05-16T02:54:02;21.40;73.70
18412;DHT22;27097;51.738;19.472;2023-05-16T02:56:29;21.40;73.70
18412;DHT22;27097;51.738;19.472;2023-05-16T02:58:56;21.40;73.40
18412;DHT22;27097;51.738;19.472;2023-05-16T03:01:23;21.40;73.40
18412;DHT22;27097;51.738;19.472;2023-05-16T03:03:50;21.50;73.00
18412;DHT22;27097;51.738;19.472;2023-05-16T03:06:18;21.40;72.70
18412;DHT22;27097;51.738;19.472;2023-05-16T03:08:45;21.40;73.90
18412;DHT22;27097;51.738;19.472;2023-05-16T03:11:12;21.40;74.30
18412;DHT22;27097;51.738;19.472;2023-05-16T03:13:39;21.40;73.10
18412;DHT22;27097;51.738;19.472;2023-05-16T03:16:06;21.40;72.70
18412;DHT22;27097;51.738;19.472;2023-05-16T03:18:33;21.40;72.30
18412;DHT22;27097;51.738;19.472;2023-05-16T03:21:00;21.40;72.60
18412;DHT22;27097;51.738;19.472;2023-05-16T03:23:29;21.40;73.20
18412;DHT22;27097;51.738;19.472;2023-05-16T03:25:55;21.40;72.70
18412;DHT22;27097;51.738;19.472;2023-05-16T03:28:22;21.40;72.60
18412;DHT22;27097;51.738;19.472;2023-05-16T03:30:49;21.40;73.10
18412;DHT22;27097;51.738;19.472;2023-05-16T03:33:16;21.40;72.20
18412;DHT22;27097;51.738;19.472;2023-05-16T03:35:43;21.40;73.00
18412;DHT22;27097;51.738;19.472;2023-05-16T03:38:11;21.40;72.50
18412;DHT22;27097;51.738;19.472;2023-05-16T03:40:39;21.30;72.20
18412;DHT22;27097;51.738;19.472;2023-05-16T03:43:06;21.30;72.30
18412;DHT22;27097;51.738;19.472;2023-05-16T03:48:55;21.30;72.10
18412;DHT22;27097;51.738;19.472;2023-05-16T03:51:22;21.30;72.30
18412;DHT22;27097;51.738;19.472;2023-05-16T03:53:50;21.30;72.30
18412;DHT22;27097;51.738;19.472;2023-05-16T03:56:18;21.30;72.30
18412;DHT22;27097;51.738;19.472;2023-05-16T03:58:46;21.40;72.30
18412;DHT22;27097;51.738;19.472;2023-05-16T04:01:13;21.30;71.70
18412;DHT22;27097;51.738;19.472;2023-05-16T04:03:40;21.30;72.00
18412;DHT22;27097;51.738;19.472;2023-05-16T04:06:07;21.30;72.10
18412;DHT22;27097;51.738;19.472;2023-05-16T04:08:33;21.30;72.30
18412;DHT22;27097;51.738;19.472;2023-05-16T04:11:06;21.30;72.30
18412;DHT22;27097;51.738;19.472;2023-05-16T04:13:37;21.30;71.80
18412;DHT22;27097;51.738;19.472;2023-05-16T04:16:05;21.40;73.20
18412;DHT22;27097;51.738;19.472;2023-05-16T04:18:33;21.30;71.30
18412;DHT22;27097;51.738;19.472;2023-05-16T04:21:00;21.40;71.10
18412;DHT22;27097;51.738;19.472;2023-05-16T04:23:44;21.40;71.00
18412;DHT22;27097;51.738;19.472;2023-05-16T04:26:17;21.40;71.30
18412;DHT22;27097;51.738;19.472;2023-05-16T04:29:01;21.40;71.10
18412;DHT22;27097;51.738;19.472;2023-05-16T04:31:28;21.40;71.60
18412;DHT22;27097;51.738;19.472;2023-05-16T04:33:55;21.40;71.20
18412;DHT22;27097;51.738;19.472;2023-05-16T04:36:22;21.40;71.20
18412;DHT22;27097;51.738;19.472;2023-05-16T04:38:49;21.40;71.70
18412;DHT22;27097;51.738;19.472;2023-05-16T04:41:16;21.50;71.20
18412;DHT22;27097;51.738;19.472;2023-05-16T04:43:44;21.50;71.10
18412;DHT22;27097;51.738;19.472;2023-05-16T04:46:12;21.50;71.00
18412;DHT22;27097;51.738;19.472;2023-05-16T04:48:40;21.50;71.40
18412;DHT22;27097;51.738;19.472;2023-05-16T04:51:08;21.50;70.80
18412;DHT22;27097;51.738;19.472;2023-05-16T04:53:36;21.50;70.10
18412;DHT22;27097;51.738;19.472;2023-05-16T04:56:03;21.50;70.10
18412;DHT22;27097;51.738;19.472;2023-05-16T04:58:30;21.50;70.40
18412;DHT22;27097;51.738;19.472;2023-05-16T05:00:58;21.50;71.10
18412;DHT22;27097;51.738;19.472;2023-05-16T05:03:44;21.50;69.70
18412;DHT22;27097;51.738;19.472;2023-05-16T05:06:11;21.50;69.00
18412;DHT22;27097;51.738;19.472;2023-05-16T05:08:37;21.50;69.80
18412;DHT22;27097;51.738;19.472;2023-05-16T05:11:04;21.50;69.80
18412;DHT22;27097;51.738;19.472;2023-05-16T05:13:31;21.50;70.20
18412;DHT22;27097;51.738;19.472;2023-05-16T05:15:58;21.50;70.10
18412;DHT22;27097;51.738;19.472;2023-05-16T05:18:26;21.50;69.40
18412;DHT22;27097;51.738;19.472;2023-05-16T05:20:54;21.50;69.80
18412;DHT22;27097;51.738;19.472;2023-05-16T05:23:22;21.50;70.00
18412;DHT22;27097;51.738;19.472;2023-05-16T05:25:49;21.50;69.60
18412;DHT22;27097;51.738;19.472;2023-05-16T05:28:19;21.50;70.40
18412;DHT22;27097;51.738;19.472;2023-05-16T05:30:46;21.60;69.20
18412;DHT22;27097;51.738;19.472;2023-05-16T05:33:18;21.60;69.20
18412;DHT22;27097;51.738;19.472;2023-05-16T05:35:47;21.60;68.90
18412;DHT22;27097;51.738;19.472;2023-05-16T05:38:17;21.60;68.70
18412;DHT22;27097;51.738;19.472;2023-05-16T05:40:44;21.60;69.30
18412;DHT22;27097;51.738;19.472;2023-05-16T05:43:11;21.70;69.80
18412;DHT22;27097;51.738;19.472;2023-05-16T05:45:38;21.70;69.80
18412;DHT22;27097;51.738;19.472;2023-05-16T05:48:05;21.70;70.20
18412;DHT22;27097;51.738;19.472;2023-05-16T05:50:32;21.70;70.70
18412;DHT22;27097;51.738;19.472;2023-05-16T05:55:41;21.80;69.90
18412;DHT22;27097;51.738;19.472;2023-05-16T05:58:12;21.80;71.10
18412;DHT22;27097;51.738;19.472;2023-05-16T06:00:50;21.80;69.40
18412;DHT22;27097;51.738;19.472;2023-05-16T06:03:35;21.80;69.70
18412;DHT22;27097;51.738;19.472;2023-05-16T06:06:16;21.90;70.00
18412;DHT22;27097;51.738;19.472;2023-05-16T06:08:43;21.90;70.60
18412;DHT22;27097;51.738;19.472;2023-05-16T06:11:14;21.90;71.40
18412;DHT22;27097;51.738;19.472;2023-05-16T06:13:41;21.90;72.00
18412;DHT22;27097;51.738;19.472;2023-05-16T06:16:14;22.00;71.10
18412;DHT22;27097;51.738;19.472;2023-05-16T06:18:43;22.00;72.50
18412;DHT22;27097;51.738;19.472;2023-05-16T06:21:35;22.00;71.80
18412;DHT22;27097;51.738;19.472;2023-05-16T06:26:46;22.00;69.10
18412;DHT22;27097;51.738;19.472;2023-05-16T06:29:16;22.10;72.30
18412;DHT22;27097;51.738;19.472;2023-05-16T06:31:44;22.10;70.40
18412;DHT22;27097;51.738;19.472;2023-05-16T06:34:12;22.10;69.30
18412;DHT22;27097;51.738;19.472;2023-05-16T06:36:48;22.10;71.00
18412;DHT22;27097;51.738;19.472;2023-05-16T06:42:20;22.10;68.80
18412;DHT22;27097;51.738;19.472;2023-05-16T06:44:47;22.20;67.60
18412;DHT22;27097;51.738;19.472;2023-05-16T06:49:39;22.20;68.40
18412;DHT22;27097;51.738;19.472;2023-05-16T06:52:07;22.20;68.30
18412;DHT22;27097;51.738;19.472;2023-05-16T06:54:34;22.20;67.80
18412;DHT22;27097;51.738;19.472;2023-05-16T06:57:01;22.20;66.60
18412;DHT22;27097;51.738;19.472;2023-05-16T06:59:43;22.20;68.40
18412;DHT22;27097;51.738;19.472;2023-05-16T07:02:10;22.30;66.40
18412;DHT22;27097;51.738;19.472;2023-05-16T07:04:37;22.30;65.80
18412;DHT22;27097;51.738;19.472;2023-05-16T07:07:05;22.30;64.20
18412;DHT22;27097;51.738;19.472;2023-05-16T07:09:36;22.30;64.40
18412;DHT22;27097;51.738;19.472;2023-05-16T07:12:09;22.40;63.70
18412;DHT22;27097;51.738;19.472;2023-05-16T07:14:55;22.40;65.50
18412;DHT22;27097;51.738;19.472;2023-05-16T07:17:44;22.40;66.50
18412;DHT22;27097;51.738;19.472;2023-05-16T07:20:25;22.50;66.50
18412;DHT22;27097;51.738;19.472;2023-05-16T07:25:39;22.60;65.60
18412;DHT22;27097;51.738;19.472;2023-05-16T07:28:22;22.60;67.00
18412;DHT22;27097;51.738;19.472;2023-05-16T07:33:22;22.70;67.20
18412;DHT22;27097;51.738;19.472;2023-05-16T07:36:27;22.70;67.70
18412;DHT22;27097;51.738;19.472;2023-05-16T07:38:54;22.70;66.10
18412;DHT22;27097;51.738;19.472;2023-05-16T07:41:27;22.70;63.90
18412;DHT22;27097;51.738;19.472;2023-05-16T07:46:35;22.80;65.90
18412;DHT22;27097;51.738;19.472;2023-05-16T07:49:10;22.80;66.00
18412;DHT22;27097;51.738;19.472;2023-05-16T07:51:37;22.80;63.80
18412;DHT22;27097;51.738;19.472;2023-05-16T07:54:05;22.90;64.70
18412;DHT22;27097;51.738;19.472;2023-05-16T07:56:31;22.90;65.70
18412;DHT22;27097;51.738;19.472;2023-05-16T07:59:02;22.90;64.90
18412;DHT22;27097;51.738;19.472;2023-05-16T08:01:30;22.90;62.80
18412;DHT22;27097;51.738;19.472;2023-05-16T08:03:57;22.90;64.10
18412;DHT22;27097;51.738;19.472;2023-05-16T08:06:25;23.00;63.60
18412;DHT22;27097;51.738;19.472;2023-05-16T08:08:52;23.00;64.50
18412;DHT22;27097;51.738;19.472;2023-05-16T08:11:20;23.00;64.00
18412;DHT22;27097;51.738;19.472;2023-05-16T08:13:48;23.00;62.80
18412;DHT22;27097;51.738;19.472;2023-05-16T08:18:43;23.10;64.70
18412;DHT22;27097;51.738;19.472;2023-05-16T08:21:13;23.10;64.10
18412;DHT22;27097;51.738;19.472;2023-05-16T08:24:03;23.20;64.80
18412;DHT22;27097;51.738;19.472;2023-05-16T08:26:31;23.20;65.30
18412;DHT22;27097;51.738;19.472;2023-05-16T08:29:23;23.20;65.30
18412;DHT22;27097;51.738;19.472;2023-05-16T08:34:41;23.30;64.20
18412;DHT22;27097;51.738;19.472;2023-05-16T08:37:08;23.30;64.40
18412;DHT22;27097;51.738;19.472;2023-05-16T08:39:40;23.30;64.90
18412;DHT22;27097;51.738;19.472;2023-05-16T08:42:07;23.40;64.00
18412;DHT22;27097;51.738;19.472;2023-05-16T08:44:36;23.40;63.30
18412;DHT22;27097;51.738;19.472;2023-05-16T08:47:10;23.50;63.60
18412;DHT22;27097;51.738;19.472;2023-05-16T08:49:43;23.40;63.70
18412;DHT22;27097;51.738;19.472;2023-05-16T08:55:45;23.50;61.90
18412;DHT22;27097;51.738;19.472;2023-05-16T08:58:38;23.60;60.70
18412;DHT22;27097;51.738;19.472;2023-05-16T09:01:06;23.60;62.20
18412;DHT22;27097;51.738;19.472;2023-05-16T09:03:35;23.70;60.60
18412;DHT22;27097;51.738;19.472;2023-05-16T09:06:04;23.70;61.10
18412;DHT22;27097;51.738;19.472;2023-05-16T09:08:31;23.70;61.00
18412;DHT22;27097;51.738;19.472;2023-05-16T09:11:00;23.70;60.40
18412;DHT22;27097;51.738;19.472;2023-05-16T09:13:28;23.70;60.30
18412;DHT22;27097;51.738;19.472;2023-05-16T09:16:08;23.80;59.90
18412;DHT22;27097;51.738;19.472;2023-05-16T09:18:35;23.80;60.70
18412;DHT22;27097;51.738;19.472;2023-05-16T09:21:16;23.80;63.90
18412;DHT22;27097;51.738;19.472;2023-05-16T09:23:43;23.70;60.50
18412;DHT22;27097;51.738;19.472;2023-05-16T09:26:12;23.70;62.30
18412;DHT22;27097;51.738;19.472;2023-05-16T09:29:01;23.70;64.50
18412;DHT22;27097;51.738;19.472;2023-05-16T09:42:28;23.40;66.70
18412;DHT22;27097;51.738;19.472;2023-05-16T09:44:57;23.50;62.50
18412;DHT22;27097;51.738;19.472;2023-05-16T09:47:27;23.50;61.00
18412;DHT22;27097;51.738;19.472;2023-05-16T09:49:54;23.60;60.50
18412;DHT22;27097;51.738;19.472;2023-05-16T09:52:22;23.70;61.40
18412;DHT22;27097;51.738;19.472;2023-05-16T09:54:53;23.70;64.80
18412;DHT22;27097;51.738;19.472;2023-05-16T09:57:20;23.70;65.60
18412;DHT22;27097;51.738;19.472;2023-05-16T09:59:49;23.60;66.30
18412;DHT22;27097;51.738;19.472;2023-05-16T10:02:16;23.60;60.90
18412;DHT22;27097;51.738;19.472;2023-05-16T10:04:43;23.60;59.70
18412;DHT22;27097;51.738;19.472;2023-05-16T10:07:11;23.70;60.20
18412;DHT22;27097;51.738;19.472;2023-05-16T10:09:42;23.80;59.20
18412;DHT22;27097;51.738;19.472;2023-05-16T10:12:14;23.90;58.30
18412;DHT22;27097;51.738;19.472;2023-05-16T10:14:44;23.90;60.00
18412;DHT22;27097;51.738;19.472;2023-05-16T10:17:16;23.90;59.30
18412;DHT22;27097;51.738;19.472;2023-05-16T10:19:44;24.00;59.90
18412;DHT22;27097;51.738;19.472;2023-05-16T10:22:12;24.00;58.40
18412;DHT22;27097;51.738;19.472;2023-05-16T10:24:43;24.00;58.10
18412;DHT22;27097;51.738;19.472;2023-05-16T10:27:12;24.00;58.50
18412;DHT22;27097;51.738;19.472;2023-05-16T10:29:41;24.00;58.70
18412;DHT22;27097;51.738;19.472;2023-05-16T10:32:09;24.00;59.70
18412;DHT22;27097;51.738;19.472;2023-05-16T10:34:38;24.00;58.30
18412;DHT22;27097;51.738;19.472;2023-05-16T10:37:06;24.00;57.70
18412;DHT22;27097;51.738;19.472;2023-05-16T10:39:40;24.00;57.60
18412;DHT22;27097;51.738;19.472;2023-05-16T10:42:07;24.00;57.80
18412;DHT22;27097;51.738;19.472;2023-05-16T10:44:44;24.00;59.20
18412;DHT22;27097;51.738;19.472;2023-05-16T10:47:11;24.00;59.20
18412;DHT22;27097;51.738;19.472;2023-05-16T10:49:41;24.00;59.30
18412;DHT22;27097;51.738;19.472;2023-05-16T10:52:09;23.90;58.90
18412;DHT22;27097;51.738;19.472;2023-05-16T10:54:37;23.90;57.00
18412;DHT22;27097;51.738;19.472;2023-05-16T10:57:06;24.00;56.60
18412;DHT22;27097;51.738;19.472;2023-05-16T10:59:42;24.00;58.60
18412;DHT22;27097;51.738;19.472;2023-05-16T11:02:24;24.00;58.30
18412;DHT22;27097;51.738;19.472;2023-05-16T11:04:54;24.00;58.40
18412;DHT22;27097;51.738;19.472;2023-05-16T11:07:24;23.90;57.90
18412;DHT22;27097;51.738;19.472;2023-05-16T11:10:05;24.00;58.90
18412;DHT22;27097;51.738;19.472;2023-05-16T11:12:50;24.00;59.40
18412;DHT22;27097;51.738;19.472;2023-05-16T11:15:22;24.00;57.50
18412;DHT22;27097;51.738;19.472;2023-05-16T11:17:49;24.10;57.60
18412;DHT22;27097;51.738;19.472;2023-05-16T11:20:29;24.10;56.80
18412;DHT22;27097;51.738;19.472;2023-05-16T11:23:22;24.20;58.30
18412;DHT22;27097;51.738;19.472;2023-05-16T11:25:54;24.10;58.60
18412;DHT22;27097;51.738;19.472;2023-05-16T11:28:24;24.20;56.00
18412;DHT22;27097;51.738;19.472;2023-05-16T11:30:52;24.30;56.30
18412;DHT22;27097;51.738;19.472;2023-05-16T11:33:21;24.50;55.50
18412;DHT22;27097;51.738;19.472;2023-05-16T11:36:03;24.60;55.80
18412;DHT22;27097;51.738;19.472;2023-05-16T11:38:30;24.60;56.20
18412;DHT22;27097;51.738;19.472;2023-05-16T11:41:02;24.60;55.20
18412;DHT22;27097;51.738;19.472;2023-05-16T11:43:36;24.60;55.90
18412;DHT22;27097;51.738;19.472;2023-05-16T11:46:03;24.60;56.10
18412;DHT22;27097;51.738;19.472;2023-05-16T11:48:30;24.50;55.00
18412;DHT22;27097;51.738;19.472;2023-05-16T11:50:57;24.50;55.70
18412;DHT22;27097;51.738;19.472;2023-05-16T11:53:26;24.50;55.30
18412;DHT22;27097;51.738;19.472;2023-05-16T11:55:53;24.50;56.40
18412;DHT22;27097;51.738;19.472;2023-05-16T11:58:21;24.40;55.80
18412;DHT22;27097;51.738;19.472;2023-05-16T12:00:48;24.40;56.60
18412;DHT22;27097;51.738;19.472;2023-05-16T12:03:17;24.40;55.70
18412;DHT22;27097;51.738;19.472;2023-05-16T12:05:49;24.30;55.20
18412;DHT22;27097;51.738;19.472;2023-05-16T12:08:17;24.30;55.40
18412;DHT22;27097;51.738;19.472;2023-05-16T12:10:47;24.30;55.40
18412;DHT22;27097;51.738;19.472;2023-05-16T12:13:15;24.30;56.30
18412;DHT22;27097;51.738;19.472;2023-05-16T12:15:42;24.30;56.00
18412;DHT22;27097;51.738;19.472;2023-05-16T12:18:09;24.20;55.40
18412;DHT22;27097;51.738;19.472;2023-05-16T12:20:37;24.20;56.20
18412;DHT22;27097;51.738;19.472;2023-05-16T12:23:04;24.20;55.40
18412;DHT22;27097;51.738;19.472;2023-05-16T12:25:36;24.20;55.70
18412;DHT22;27097;51.738;19.472;2023-05-16T12:28:08;24.20;56.80
18412;DHT22;27097;51.738;19.472;2023-05-16T12:30:35;24.20;55.30
18412;DHT22;27097;51.738;19.472;2023-05-16T12:33:03;24.20;55.20
18412;DHT22;27097;51.738;19.472;2023-05-16T12:35:34;24.20;55.80
18412;DHT22;27097;51.738;19.472;2023-05-16T12:38:03;24.20;57.50
18412;DHT22;27097;51.738;19.472;2023-05-16T12:40:32;24.10;57.70
18412;DHT22;27097;51.738;19.472;2023-05-16T12:42:59;24.10;54.70
18412;DHT22;27097;51.738;19.472;2023-05-16T12:45:28;24.10;55.50
18412;DHT22;27097;51.738;19.472;2023-05-16T12:48:04;24.10;56.80
18412;DHT22;27097;51.738;19.472;2023-05-16T12:51:07;24.10;56.30
18412;DHT22;27097;51.738;19.472;2023-05-16T12:53:44;24.10;56.70
18412;DHT22;27097;51.738;19.472;2023-05-16T12:56:11;24.10;56.60
18412;DHT22;27097;51.738;19.472;2023-05-16T12:58:40;24.00;56.50
18412;DHT22;27097;51.738;19.472;2023-05-16T13:01:08;24.00;55.20
18412;DHT22;27097;51.738;19.472;2023-05-16T13:03:38;24.00;56.10
18412;DHT22;27097;51.738;19.472;2023-05-16T13:06:05;24.00;55.90
18412;DHT22;27097;51.738;19.472;2023-05-16T13:08:33;24.00;55.90
18412;DHT22;27097;51.738;19.472;2023-05-16T13:11:03;24.00;56.20
18412;DHT22;27097;51.738;19.472;2023-05-16T13:13:30;24.00;56.40
18412;DHT22;27097;51.738;19.472;2023-05-16T13:15:57;24.00;57.00
18412;DHT22;27097;51.738;19.472;2023-05-16T13:18:25;24.00;57.20
18412;DHT22;27097;51.738;19.472;2023-05-16T13:21:04;24.00;57.50
18412;DHT22;27097;51.738;19.472;2023-05-16T13:23:43;24.00;57.00
18412;DHT22;27097;51.738;19.472;2023-05-16T13:26:11;24.00;56.50
18412;DHT22;27097;51.738;19.472;2023-05-16T13:28:38;24.00;57.30
18412;DHT22;27097;51.738;19.472;2023-05-16T13:31:05;24.00;57.30
18412;DHT22;27097;51.738;19.472;2023-05-16T13:33:33;24.00;57.70
18412;DHT22;27097;51.738;19.472;2023-05-16T13:36:00;24.00;58.50
18412;DHT22;27097;51.738;19.472;2023-05-16T13:38:28;24.00;58.30
18412;DHT22;27097;51.738;19.472;2023-05-16T13:40:55;24.00;57.70
18412;DHT22;27097;51.738;19.472;2023-05-16T13:43:22;24.00;58.60
18412;DHT22;27097;51.738;19.472;2023-05-16T13:45:49;24.00;57.70
18412;DHT22;27097;51.738;19.472;2023-05-16T13:48:15;24.00;57.90
18412;DHT22;27097;51.738;19.472;2023-05-16T13:50:44;24.00;58.60
18412;DHT22;27097;51.738;19.472;2023-05-16T13:53:11;24.00;58.40
18412;DHT22;27097;51.738;19.472;2023-05-16T13:55:38;24.00;59.10
18412;DHT22;27097;51.738;19.472;2023-05-16T13:58:05;24.00;59.00
18412;DHT22;27097;51.738;19.472;2023-05-16T14:00:32;24.00;58.30
18412;DHT22;27097;51.738;19.472;2023-05-16T14:02:59;24.00;58.80
18412;DHT22;27097;51.738;19.472;2023-05-16T14:05:26;24.00;59.40
18412;DHT22;27097;51.738;19.472;2023-05-16T14:07:54;24.00;59.30
18412;DHT22;27097;51.738;19.472;2023-05-16T14:10:21;24.00;58.80
18412;DHT22;27097;51.738;19.472;2023-05-16T14:12:48;24.00;59.30
18412;DHT22;27097;51.738;19.472;2023-05-16T14:15:16;24.00;59.60
18412;DHT22;27097;51.738;19.472;2023-05-16T14:17:43;24.00;59.00
18412;DHT22;27097;51.738;19.472;2023-05-16T14:20:11;24.00;59.90
18412;DHT22;27097;51.738;19.472;2023-05-16T14:22:39;24.00;59.90
18412;DHT22;27097;51.738;19.472;2023-05-16T14:25:08;24.00;59.20
18412;DHT22;27097;51.738;19.472;2023-05-16T14:27:35;24.00;60.00
18412;DHT22;27097;51.738;19.472;2023-05-16T14:30:03;24.00;60.30
18412;DHT22;27097;51.738;19.472;2023-05-16T14:32:30;24.00;60.20
18412;DHT22;27097;51.738;19.472;2023-05-16T14:34:57;24.00;59.90
18412;DHT22;27097;51.738;19.472;2023-05-16T14:37:24;24.00;61.10
18412;DHT22;27097;51.738;19.472;2023-05-16T14:40:00;24.00;60.00
18412;DHT22;27097;51.738;19.472;2023-05-16T14:42:49;24.00;60.00
18412;DHT22;27097;51.738;19.472;2023-05-16T14:45:16;24.00;59.80
18412;DHT22;27097;51.738;19.472;2023-05-16T14:47:43;24.00;60.30
18412;DHT22;27097;51.738;19.472;2023-05-16T14:50:11;24.00;60.20
18412;DHT22;27097;51.738;19.472;2023-05-16T15:08:27;23.90;58.80
18412;DHT22;27097;51.738;19.472;2023-05-16T15:16:55;23.90;59.00
18412;DHT22;27097;51.738;19.472;2023-05-16T15:25:07;23.90;58.90
18412;DHT22;27097;51.738;19.472;2023-05-16T15:27:34;23.90;59.20
18412;DHT22;27097;51.738;19.472;2023-05-16T15:32:42;23.90;59.10
18412;DHT22;27097;51.738;19.472;2023-05-16T15:35:09;23.80;59.00
18412;DHT22;27097;51.738;19.472;2023-05-16T15:37:36;23.90;59.40
18412;DHT22;27097;51.738;19.472;2023-05-16T15:40:04;23.80;59.70
18412;DHT22;27097;51.738;19.472;2023-05-16T15:42:32;23.80;59.60
18412;DHT22;27097;51.738;19.472;2023-05-16T15:45:00;23.80;59.90
18412;DHT22;27097;51.738;19.472;2023-05-16T15:47:27;23.80;59.70
18412;DHT22;27097;51.738;19.472;2023-05-16T15:49:53;23.80;59.60
18412;DHT22;27097;51.738;19.472;2023-05-16T15:52:20;23.80;59.60
18412;DHT22;27097;51.738;19.472;2023-05-16T15:54:47;23.80;59.70
18412;DHT22;27097;51.738;19.472;2023-05-16T15:57:14;23.80;59.00
18412;DHT22;27097;51.738;19.472;2023-05-16T15:59:42;23.80;59.20
18412;DHT22;27097;51.738;19.472;2023-05-16T16:02:09;23.80;59.20
18412;DHT22;27097;51.738;19.472;2023-05-16T16:04:36;23.80;59.30
18412;DHT22;27097;51.738;19.472;2023-05-16T16:07:06;23.80;59.10
18412;DHT22;27097;51.738;19.472;2023-05-16T16:09:33;23.80;60.40
18412;DHT22;27097;51.738;19.472;2023-05-16T16:12:00;23.80;59.50
18412;DHT22;27097;51.738;19.472;2023-05-16T16:14:27;23.70;59.80
18412;DHT22;27097;51.738;19.472;2023-05-16T16:16:55;23.70;60.00
18412;DHT22;27097;51.738;19.472;2023-05-16T16:19:22;23.70;59.60
18412;DHT22;27097;51.738;19.472;2023-05-16T16:21:50;23.70;60.20
18412;DHT22;27097;51.738;19.472;2023-05-16T16:24:17;23.70;60.00
18412;DHT22;27097;51.738;19.472;2023-05-16T16:26:45;23.70;59.80
18412;DHT22;27097;51.738;19.472;2023-05-16T16:29:12;23.70;59.50
18412;DHT22;27097;51.738;19.472;2023-05-16T16:31:39;23.70;61.10
18412;DHT22;27097;51.738;19.472;2023-05-16T16:34:16;23.70;61.40
18412;DHT22;27097;51.738;19.472;2023-05-16T16:36:43;23.70;61.80
18412;DHT22;27097;51.738;19.472;2023-05-16T16:39:10;23.70;61.20
18412;DHT22;27097;51.738;19.472;2023-05-16T16:41:37;23.70;60.90
18412;DHT22;27097;51.738;19.472;2023-05-16T16:44:04;23.70;62.20
18412;DHT22;27097;51.738;19.472;2023-05-16T16:46:31;23.70;61.80
18412;DHT22;27097;51.738;19.472;2023-05-16T16:48:58;23.70;62.20
18412;DHT22;27097;51.738;19.472;2023-05-16T16:51:27;23.70;61.40
18412;DHT22;27097;51.738;19.472;2023-05-16T16:53:55;23.70;62.20
18412;DHT22;27097;51.738;19.472;2023-05-16T16:56:23;23.70;61.30
18412;DHT22;27097;51.738;19.472;2023-05-16T16:58:54;23.70;61.00
18412;DHT22;27097;51.738;19.472;2023-05-16T17:01:22;23.70;62.30
18412;DHT22;27097;51.738;19.472;2023-05-16T17:03:48;23.70;62.30
18412;DHT22;27097;51.738;19.472;2023-05-16T17:06:15;23.70;61.30
18412;DHT22;27097;51.738;19.472;2023-05-16T17:09:05;23.70;62.00
18412;DHT22;27097;51.738;19.472;2023-05-16T17:11:38;23.70;61.90
18412;DHT22;27097;51.738;19.472;2023-05-16T17:14:05;23.60;62.50
18412;DHT22;27097;51.738;19.472;2023-05-16T17:16:35;23.60;62.40
18412;DHT22;27097;51.738;19.472;2023-05-16T17:19:02;23.60;62.70
18412;DHT22;27097;51.738;19.472;2023-05-16T17:23:55;23.60;62.80
18412;DHT22;27097;51.738;19.472;2023-05-16T17:26:24;23.60;61.90
18412;DHT22;27097;51.738;19.472;2023-05-16T17:28:53;23.60;61.10
18412;DHT22;27097;51.738;19.472;2023-05-16T17:31:21;23.60;62.10
18412;DHT22;27097;51.738;19.472;2023-05-16T17:33:48;23.60;62.20
18412;DHT22;27097;51.738;19.472;2023-05-16T17:36:15;23.60;61.50
18412;DHT22;27097;51.738;19.472;2023-05-16T17:38:42;23.60;62.40
18412;DHT22;27097;51.738;19.472;2023-05-16T17:41:24;23.60;61.70
18412;DHT22;27097;51.738;19.472;2023-05-16T17:43:51;23.60;63.60
18412;DHT22;27097;51.738;19.472;2023-05-16T17:46:18;23.60;64.30
18412;DHT22;27097;51.738;19.472;2023-05-16T17:48:54;23.60;64.90
18412;DHT22;27097;51.738;19.472;2023-05-16T17:53:49;23.50;64.20
18412;DHT22;27097;51.738;19.472;2023-05-16T17:56:17;23.50;65.70
18412;DHT22;27097;51.738;19.472;2023-05-16T17:58:45;23.50;67.30
18412;DHT22;27097;51.738;19.472;2023-05-16T18:01:12;23.50;67.00
18412;DHT22;27097;51.738;19.472;2023-05-16T18:03:42;23.50;67.30
18412;DHT22;27097;51.738;19.472;2023-05-16T18:08:47;23.50;67.70
18412;DHT22;27097;51.738;19.472;2023-05-16T18:11:14;23.50;68.20
18412;DHT22;27097;51.738;19.472;2023-05-16T18:17:21;23.50;68.30
18412;DHT22;27097;51.738;19.472;2023-05-16T18:19:48;23.50;67.90
18412;DHT22;27097;51.738;19.472;2023-05-16T18:22:15;23.50;67.90
18412;DHT22;27097;51.738;19.472;2023-05-16T18:24:45;23.50;67.70
18412;DHT22;27097;51.738;19.472;2023-05-16T18:27:12;23.50;68.10